Capitol, MT

3:47 PM MDT on July 25, 2014 (GMT -0600)
Baker Municipal (KBHK) Elev 2972 ft | 46.35 °N, 104.26 °W | Change Station

Current weather conditions updated 56 minutes ago

Clear
Clear
85 °F
Feels Like 85 °F
N
17
Wind Variable Wind from West
Gusts 24 mph

Today is forecast to be Much Cooler than yesterday.

Today
High -- | Low -- °F
--% Chance of Precip.
Yesterday
High -- | Low -- °F
Precip. -- in
5:32 AM 8:32 PM
Waning Crescent, 1% visible
Pressure 29.80 in
Visibility 10.0 miles
Clouds Clear
Dew Point 40 °F
Humidity 20%
Rainfall 0.00 in
Snow Depth Not available.
UV 9 out of 12
Pollen 7.30 out of 12
Air Quality Not available.
Flu Activity Not available.
METAR KBHK 252051Z AUTO 27015G21KT 10SM CLR 29/04 A2986 RMK AO2 SLP091 T02940044 56020

More Conditions Fewer Conditions

Pressure 29.80 in
Visibility 10.0 miles
Clouds Clear
Dew Point 40 °F
Humidity 20%
Rainfall 0.00 in
Snow Depth Not available.
UV 9 out of 12
Pollen 7.30 out of 12
Air Quality Not available.
Flu Activity Not available.
METAR KBHK 252051Z AUTO 27015G21KT 10SM CLR 29/04 A2986 RMK AO2 SLP091 T02940044 56020

More Conditions Fewer Conditions

10-Day Weather Forecast

Almanac

Astronomy

Jul. 25, 2014 Rise Set
Actual Time 5:32 AM MDT 8:32 PM MDT
Civil Twilight 4:57 AM MDT 9:07 PM MDT
Nautical Twilight 4:12 AM MDT 9:52 PM MDT
Astronomical Twilight 3:18 AM MDT 10:46 PM MDT
Moon 4:36 AM MDT 7:28 PM MDT
Length of Visible Light 16h 10m
Length of Day
15h 00m
Tomorrow will be 2m 11s shorter.
Waning Crescent, 1% of the Moon is Illuminated
Today
Waning Crescent
Jul 26
New
Aug 3
First Quarter
Aug 10
Full
Aug 17
Last Quarter

Today's Extremes

State Highs State Lows

Community

WunderPhotos

Upload Photos

1,737,413 photos uploaded!

Nearby

Snow Depth

Station Depth Elevation
Cole Creek 0 in 7850 ft
Crystal Lake 0 in 6050 ft
White Mill 1 in 8700 ft
Northeast Entrance 0 in 7350 ft
Monument Peak 0 in 8850 ft

Earthquake Activity

City Distance Mag. Time & Date
No recent earthquake activity has been reported nearby.
Minimum magnitude displayed is 2.5.

Coastal Water Temperatures

Place Temperature
No Stations Reporting

Nearby Weather Stations

There are no personal weather stations in this area.